createdAt,value
2017-11-05T00:00:38.023Z,10.70
2017-11-05T00:01:38.030Z,10.67
2017-11-05T00:02:38.025Z,10.62
2017-11-05T00:03:38.030Z,10.67
2017-11-05T00:04:38.033Z,10.68
2017-11-05T00:05:38.037Z,10.67
2017-11-05T00:06:38.033Z,10.68
2017-11-05T00:07:38.033Z,10.65
2017-11-05T00:08:38.032Z,10.68
2017-11-05T00:09:38.037Z,10.72
2017-11-05T00:10:38.034Z,10.68
2017-11-05T00:11:38.038Z,10.67
2017-11-05T00:12:38.045Z,10.64
2017-11-05T00:13:38.045Z,10.67
2017-11-05T00:14:38.041Z,10.71
2017-11-05T00:15:38.044Z,10.74
2017-11-05T00:16:38.051Z,10.75
2017-11-05T00:17:38.050Z,10.75
2017-11-05T00:18:38.050Z,10.75
2017-11-05T00:19:38.048Z,10.72
2017-11-05T00:20:38.052Z,10.72
2017-11-05T00:21:38.052Z,10.86
2017-11-05T00:22:38.053Z,10.87
2017-11-05T00:23:38.067Z,10.86
2017-11-05T00:24:38.061Z,10.86
2017-11-05T00:25:38.057Z,10.82
2017-11-05T00:26:38.054Z,10.82
2017-11-05T00:27:38.058Z,10.85
2017-11-05T00:28:38.061Z,10.87
2017-11-05T00:29:38.069Z,10.90
2017-11-05T00:30:38.068Z,10.89
2017-11-05T00:31:38.065Z,10.87
2017-11-05T00:32:38.064Z,10.89
2017-11-05T00:33:38.069Z,10.89
2017-11-05T00:34:38.066Z,10.97
2017-11-05T00:35:38.070Z,10.95
2017-11-05T00:36:38.069Z,10.96
2017-11-05T00:37:38.091Z,10.87
2017-11-05T00:38:38.077Z,10.93
2017-11-05T00:39:38.079Z,11.00
2017-11-05T00:40:38.078Z,10.86
2017-11-05T00:41:38.085Z,10.87
2017-11-05T00:42:38.080Z,10.89
2017-11-05T00:43:38.088Z,10.86
2017-11-05T00:44:38.081Z,10.97
2017-11-05T00:45:38.085Z,10.92
2017-11-05T00:46:38.088Z,10.90
2017-11-05T00:47:38.093Z,10.87
2017-11-05T00:48:38.087Z,10.96
2017-11-05T00:49:38.090Z,10.93
2017-11-05T00:50:38.095Z,10.97
2017-11-05T00:51:38.096Z,10.97
2017-11-05T00:52:38.093Z,10.92
2017-11-05T00:53:38.104Z,10.95
2017-11-05T00:54:38.101Z,10.92
2017-11-05T00:55:38.100Z,10.96
2017-11-05T00:56:38.103Z,10.93
2017-11-05T00:57:38.103Z,11.04
2017-11-05T00:58:38.103Z,11.03
2017-11-05T00:59:38.106Z,11.04
2017-11-05T01:00:38.111Z,11.03
2017-11-05T01:01:38.107Z,11.05
2017-11-05T01:02:38.110Z,11.00
2017-11-05T01:03:38.109Z,11.11
2017-11-05T01:04:38.111Z,11.17
2017-11-05T01:05:38.113Z,11.15
2017-11-05T01:06:38.118Z,11.12
2017-11-05T01:07:38.125Z,11.12
2017-11-05T01:08:38.131Z,11.12
2017-11-05T01:09:38.120Z,11.22
2017-11-05T01:10:38.123Z,11.25
2017-11-05T01:11:38.129Z,11.25
2017-11-05T01:12:38.129Z,11.25
2017-11-05T01:13:38.129Z,11.20
2017-11-05T01:14:38.131Z,11.26
2017-11-05T01:15:38.140Z,11.30
2017-11-05T01:16:38.142Z,11.29
2017-11-05T01:17:38.138Z,11.26
2017-11-05T01:18:38.139Z,11.28
2017-11-05T01:19:38.141Z,11.25
2017-11-05T01:20:38.137Z,11.20
2017-11-05T01:21:38.141Z,11.23
2017-11-05T01:22:38.146Z,11.30
2017-11-05T01:23:38.146Z,11.25
2017-11-05T01:24:38.147Z,11.23
2017-11-05T01:25:38.147Z,11.23
2017-11-05T01:26:38.149Z,11.29
2017-11-05T01:27:38.150Z,11.35
2017-11-05T01:28:38.157Z,11.37
2017-11-05T01:29:38.159Z,11.30
2017-11-05T01:30:38.157Z,11.33
2017-11-05T01:31:38.156Z,11.30
2017-11-05T01:32:38.159Z,11.29
2017-11-05T01:33:38.160Z,11.30
2017-11-05T01:34:38.167Z,11.25
2017-11-05T01:35:38.165Z,11.38
2017-11-05T01:36:38.171Z,11.32
2017-11-05T01:37:38.170Z,11.26
2017-11-05T01:38:38.171Z,11.29
2017-11-05T01:39:38.168Z,11.29
2017-11-05T01:40:38.177Z,11.38
2017-11-05T01:41:38.179Z,11.38
2017-11-05T01:42:38.195Z,11.38
2017-11-05T01:43:38.177Z,11.46
2017-11-05T01:44:38.189Z,11.43
2017-11-05T01:45:38.185Z,11.46
2017-11-05T01:46:38.191Z,11.47
2017-11-05T01:47:38.191Z,11.40
2017-11-05T01:48:38.191Z,11.53
2017-11-05T01:49:38.192Z,11.48
2017-11-05T01:50:38.191Z,11.50
2017-11-05T01:51:38.196Z,11.46
2017-11-05T01:52:38.205Z,11.47
2017-11-05T01:53:38.198Z,11.48
2017-11-05T01:54:38.198Z,11.56
2017-11-05T01:55:38.201Z,11.56
2017-11-05T01:56:38.207Z,11.54
2017-11-05T01:57:38.207Z,11.56
2017-11-05T01:58:38.208Z,11.58
2017-11-05T01:59:38.209Z,11.59
2017-11-05T02:00:38.210Z,11.61
2017-11-05T02:01:38.212Z,11.56
2017-11-05T02:02:38.213Z,11.63
2017-11-05T02:03:38.218Z,11.63
2017-11-05T02:04:38.218Z,11.62
2017-11-05T02:05:38.219Z,11.61
2017-11-05T02:06:38.219Z,11.62
2017-11-05T02:07:38.251Z,11.63
2017-11-05T02:08:38.222Z,11.62
2017-11-05T02:09:38.239Z,11.61
2017-11-05T02:10:38.229Z,11.62
2017-11-05T02:11:38.233Z,11.66
2017-11-05T02:12:38.244Z,11.74
2017-11-05T02:13:38.233Z,11.76
2017-11-05T02:14:38.233Z,11.74
2017-11-05T02:15:38.240Z,11.68
2017-11-05T02:16:38.241Z,11.69
2017-11-05T02:17:38.243Z,11.69
2017-11-05T02:18:38.241Z,11.81
2017-11-05T02:19:38.243Z,11.81
2017-11-05T02:20:38.248Z,11.87
2017-11-05T02:21:38.256Z,11.88
2017-11-05T02:22:38.256Z,11.96
2017-11-05T02:23:38.251Z,11.84
2017-11-05T02:24:38.259Z,11.90
2017-11-05T02:25:38.259Z,11.99
2017-11-05T02:26:38.260Z,11.96
2017-11-05T02:27:38.257Z,11.88
2017-11-05T02:28:38.263Z,11.97
2017-11-05T02:29:38.265Z,11.87
2017-11-05T02:30:38.269Z,11.95
2017-11-05T02:31:38.267Z,12.02
2017-11-05T02:32:38.270Z,12.00
2017-11-05T02:33:38.266Z,12.02
2017-11-05T02:34:38.276Z,12.02
2017-11-05T02:35:38.272Z,12.03
2017-11-05T02:36:38.276Z,12.09
2017-11-05T02:37:38.278Z,12.07
2017-11-05T02:38:38.278Z,12.10
2017-11-05T02:39:38.282Z,12.03
2017-11-05T02:40:38.282Z,11.99
2017-11-05T02:41:38.285Z,11.99
2017-11-05T02:42:38.288Z,11.97
2017-11-05T02:43:38.292Z,11.99
2017-11-05T02:44:38.288Z,11.96
2017-11-05T02:45:38.296Z,11.96
2017-11-05T02:46:38.294Z,11.99
2017-11-05T02:47:38.292Z,11.99
2017-11-05T02:48:38.298Z,11.99
2017-11-05T02:49:38.299Z,11.90
2017-11-05T02:50:38.305Z,11.84
2017-11-05T02:51:38.301Z,11.86
2017-11-05T02:52:38.302Z,11.95
2017-11-05T02:53:38.312Z,11.83
2017-11-05T02:54:38.310Z,11.87
2017-11-05T02:55:38.312Z,11.86
2017-11-05T02:56:38.313Z,11.69
2017-11-05T02:57:38.328Z,11.76
2017-11-05T02:58:38.325Z,11.79
2017-11-05T02:59:38.318Z,11.77
2017-11-05T03:00:38.324Z,11.71
2017-11-05T03:01:38.327Z,11.77
2017-11-05T03:02:38.327Z,11.71
2017-11-05T03:03:38.332Z,11.62
2017-11-05T03:04:38.340Z,11.61
2017-11-05T03:05:38.335Z,11.61
2017-11-05T03:06:38.333Z,11.62
2017-11-05T03:07:38.335Z,11.65
2017-11-05T03:08:38.335Z,11.61
2017-11-05T03:09:38.337Z,11.61
2017-11-05T03:10:38.343Z,11.51
2017-11-05T03:11:38.343Z,11.56
2017-11-05T03:12:38.345Z,11.63
2017-11-05T03:13:38.352Z,11.61
2017-11-05T03:14:38.352Z,11.58
2017-11-05T03:15:38.352Z,11.51
2017-11-05T03:16:38.363Z,11.53
2017-11-05T03:17:38.364Z,11.51
2017-11-05T03:18:38.359Z,11.54
2017-11-05T03:19:38.362Z,11.43
2017-11-05T03:20:38.367Z,11.46
2017-11-05T03:21:38.361Z,11.35
2017-11-05T03:22:38.367Z,11.47
2017-11-05T03:23:38.369Z,11.47
2017-11-05T03:24:38.375Z,11.44
2017-11-05T03:25:38.373Z,11.47
2017-11-05T03:26:38.372Z,11.47
2017-11-05T03:27:38.382Z,11.47
2017-11-05T03:28:38.380Z,11.38
2017-11-05T03:29:38.378Z,11.43
2017-11-05T03:30:38.383Z,11.38
2017-11-05T03:31:38.384Z,11.38
2017-11-05T03:32:38.387Z,11.41
2017-11-05T03:33:38.386Z,11.43
2017-11-05T03:34:38.391Z,11.44
2017-11-05T03:35:38.394Z,11.58
2017-11-05T03:36:38.393Z,11.51
2017-11-05T03:37:38.393Z,11.48
2017-11-05T03:38:38.401Z,11.44
2017-11-05T03:39:38.404Z,11.44
2017-11-05T03:40:38.404Z,11.51
2017-11-05T03:41:38.402Z,11.51
2017-11-05T03:42:38.404Z,11.53
2017-11-05T03:43:38.407Z,11.56
2017-11-05T03:44:38.416Z,11.58
2017-11-05T03:45:38.419Z,11.53
2017-11-05T03:46:38.411Z,11.61
2017-11-05T03:47:38.415Z,11.46
2017-11-05T03:48:38.421Z,11.62
2017-11-05T03:49:38.420Z,11.59
2017-11-05T03:50:38.425Z,11.54
2017-11-05T03:51:38.425Z,11.54
2017-11-05T03:52:38.429Z,11.62
2017-11-05T03:53:38.433Z,11.58
2017-11-05T03:54:38.431Z,11.58
2017-11-05T03:55:38.434Z,11.63
2017-11-05T03:56:38.434Z,11.59
2017-11-05T03:57:38.449Z,11.68
2017-11-05T03:58:38.442Z,11.71
2017-11-05T03:59:38.444Z,11.68
2017-11-05T04:00:38.444Z,11.59
2017-11-05T04:01:38.441Z,11.62
2017-11-05T04:02:38.444Z,11.58
2017-11-05T04:03:38.449Z,11.63
2017-11-05T04:04:38.457Z,11.63
2017-11-05T04:05:38.455Z,11.61
2017-11-05T04:06:38.457Z,11.63
2017-11-05T04:07:38.468Z,11.62
2017-11-05T04:08:38.457Z,11.56
2017-11-05T04:09:38.473Z,11.59
2017-11-05T04:10:38.462Z,11.58
2017-11-05T04:11:38.468Z,11.58
2017-11-05T04:12:38.478Z,11.62
2017-11-05T04:13:38.474Z,11.59
2017-11-05T04:14:38.479Z,11.61
2017-11-05T04:15:38.471Z,11.65
2017-11-05T04:16:38.473Z,11.62
2017-11-05T04:17:38.474Z,11.62
2017-11-05T04:18:38.481Z,11.65
2017-11-05T04:19:38.482Z,11.63
2017-11-05T04:20:38.482Z,11.66
2017-11-05T04:21:38.484Z,11.68
2017-11-05T04:22:38.483Z,11.68
2017-11-05T04:23:38.490Z,11.63
2017-11-05T04:24:38.490Z,11.66
2017-11-05T04:25:38.494Z,11.62
2017-11-05T04:26:38.496Z,11.68
2017-11-05T04:27:38.501Z,11.68
2017-11-05T04:28:38.497Z,11.56
2017-11-05T04:29:38.497Z,11.59
2017-11-05T04:30:38.503Z,11.56
2017-11-05T04:31:38.506Z,11.59
2017-11-05T04:32:38.506Z,11.61
2017-11-05T04:33:38.512Z,11.54
2017-11-05T04:34:38.514Z,11.56
2017-11-05T04:35:38.519Z,11.48
2017-11-05T04:36:38.517Z,11.59
2017-11-05T04:37:38.514Z,11.56
2017-11-05T04:38:38.516Z,11.53
2017-11-05T04:39:38.530Z,11.51
2017-11-05T04:40:38.523Z,11.56
2017-11-05T04:41:38.524Z,11.54
2017-11-05T04:42:38.526Z,11.51
2017-11-05T04:43:38.525Z,11.48
2017-11-05T04:44:38.536Z,11.53
2017-11-05T04:45:38.532Z,11.48
2017-11-05T04:46:38.534Z,11.53
2017-11-05T04:47:38.533Z,11.51
2017-11-05T04:48:38.547Z,11.46
2017-11-05T04:49:38.542Z,11.44
2017-11-05T04:50:38.544Z,11.44
2017-11-05T04:51:38.544Z,11.32
2017-11-05T04:52:38.545Z,11.30
2017-11-05T04:53:38.553Z,11.37
2017-11-05T04:54:38.553Z,11.32
2017-11-05T04:55:38.557Z,11.29
2017-11-05T04:56:38.556Z,11.30
2017-11-05T04:57:38.556Z,11.35
2017-11-05T04:58:38.560Z,11.28
2017-11-05T04:59:38.561Z,11.26
2017-11-05T05:00:38.572Z,11.30
2017-11-05T05:01:38.572Z,11.20
2017-11-05T05:02:38.566Z,11.10
2017-11-05T05:03:38.569Z,11.17
2017-11-05T05:04:38.568Z,11.15
2017-11-05T05:05:38.580Z,11.08
2017-11-05T05:06:38.577Z,11.12
2017-11-05T05:07:38.582Z,11.11
2017-11-05T05:08:38.578Z,11.08
2017-11-05T05:09:38.587Z,11.10
2017-11-05T05:10:38.586Z,10.96
2017-11-05T05:11:38.595Z,11.14
2017-11-05T05:12:38.590Z,11.05
2017-11-05T05:13:38.595Z,11.04
2017-11-05T05:14:38.597Z,11.00
2017-11-05T05:15:38.593Z,10.96
2017-11-05T05:16:38.597Z,11.04
2017-11-05T05:17:38.596Z,10.95
2017-11-05T05:18:38.600Z,10.90
2017-11-05T05:19:38.612Z,11.01
2017-11-05T05:20:38.605Z,11.00
2017-11-05T05:21:38.607Z,10.87
2017-11-05T05:22:38.606Z,10.83
2017-11-05T05:23:38.610Z,10.93
2017-11-05T05:24:38.611Z,10.89
2017-11-05T05:25:38.614Z,10.90
2017-11-05T05:26:38.613Z,10.92
2017-11-05T05:27:38.616Z,10.90
2017-11-05T05:28:38.616Z,10.83
2017-11-05T05:29:38.624Z,10.87
2017-11-05T05:30:38.622Z,10.92
2017-11-05T05:31:38.632Z,10.82
2017-11-05T05:32:38.625Z,10.87
2017-11-05T05:33:38.631Z,10.89
2017-11-05T05:34:38.635Z,10.86
2017-11-05T05:35:38.627Z,10.78
2017-11-05T05:36:38.637Z,10.82
2017-11-05T05:37:38.636Z,10.82
2017-11-05T05:38:38.637Z,10.74
2017-11-05T05:39:38.637Z,10.82
2017-11-05T05:40:38.642Z,10.87
2017-11-05T05:41:38.640Z,10.75
2017-11-05T05:42:38.639Z,10.85
2017-11-05T05:43:38.648Z,10.74
2017-11-05T05:44:38.653Z,10.72
2017-11-05T05:45:38.654Z,10.77
2017-11-05T05:46:38.648Z,10.75
2017-11-05T05:47:38.657Z,10.72
2017-11-05T05:48:38.652Z,10.78
2017-11-05T05:49:38.657Z,10.67
2017-11-05T05:50:38.657Z,10.75
2017-11-05T05:52:39.166Z,10.74
2017-11-05T05:54:42.650Z,10.68
2017-11-05T05:55:38.666Z,10.71
2017-11-05T05:56:38.667Z,10.68
2017-11-05T05:57:38.677Z,10.68
2017-11-05T06:00:38.675Z,10.68
2017-11-05T06:01:38.689Z,10.70
2017-11-05T06:02:38.685Z,10.68
2017-11-05T06:03:38.684Z,10.68
2017-11-05T06:04:38.682Z,10.67
2017-11-05T06:05:38.684Z,10.68
2017-11-05T06:06:38.686Z,10.57
2017-11-05T06:07:38.689Z,10.65
2017-11-05T06:08:38.702Z,10.68
2017-11-05T06:09:38.693Z,10.60
2017-11-05T06:10:38.699Z,10.67
2017-11-05T06:11:38.693Z,10.68
2017-11-05T06:12:38.728Z,10.68
2017-11-05T06:13:38.697Z,10.65
2017-11-05T06:14:38.701Z,10.67
2017-11-05T06:15:38.701Z,10.65
2017-11-05T06:16:38.705Z,10.65
2017-11-05T06:17:38.706Z,10.62
2017-11-05T06:18:38.711Z,10.67
2017-11-05T06:19:38.712Z,10.65
2017-11-05T06:20:38.712Z,10.65
2017-11-05T06:21:38.797Z,10.60
2017-11-05T06:22:38.802Z,10.65
2017-11-05T06:23:40.063Z,10.70
2017-11-05T06:24:38.718Z,10.57
2017-11-05T06:25:38.721Z,10.65
2017-11-05T06:26:38.724Z,10.59
2017-11-05T06:27:38.726Z,10.62
2017-11-05T06:28:38.727Z,10.59
2017-11-05T06:29:38.726Z,10.57
2017-11-05T06:30:38.726Z,10.60
2017-11-05T06:31:38.738Z,10.72
2017-11-05T06:32:38.735Z,10.68
2017-11-05T06:33:38.737Z,10.56
2017-11-05T06:34:38.738Z,10.59
2017-11-05T06:35:38.733Z,10.59
2017-11-05T06:36:38.747Z,10.56
2017-11-05T06:37:38.743Z,10.54
2017-11-05T06:38:38.743Z,10.60
2017-11-05T06:39:38.752Z,10.54
2017-11-05T06:40:38.746Z,10.57
2017-11-05T06:41:38.745Z,10.52
2017-11-05T06:42:38.745Z,10.53
2017-11-05T06:43:38.747Z,10.56
2017-11-05T06:44:38.764Z,10.48
2017-11-05T06:45:38.754Z,10.45
2017-11-05T06:46:38.753Z,10.46
2017-11-05T06:47:38.765Z,10.59
2017-11-05T06:48:38.766Z,10.52
2017-11-05T06:49:38.759Z,10.46
2017-11-05T06:50:38.760Z,10.56
2017-11-05T06:51:38.761Z,10.49
2017-11-05T06:52:38.769Z,10.45
2017-11-05T06:53:38.769Z,10.43
2017-11-05T06:54:38.772Z,10.53
2017-11-05T06:55:38.770Z,10.41
2017-11-05T06:56:38.771Z,10.52
2017-11-05T06:57:38.787Z,10.49
2017-11-05T06:58:38.771Z,10.53
2017-11-05T06:59:38.784Z,10.49
2017-11-05T07:00:38.780Z,10.48
2017-11-05T07:01:38.778Z,10.54
2017-11-05T07:02:38.787Z,10.59
2017-11-05T07:03:38.782Z,10.60
2017-11-05T07:04:38.781Z,10.59
2017-11-05T07:05:38.788Z,10.56
2017-11-05T07:06:38.787Z,10.57
2017-11-05T07:07:38.787Z,10.64
2017-11-05T07:08:38.787Z,10.57
2017-11-05T07:09:38.789Z,10.60
2017-11-05T07:10:38.793Z,10.62
2017-11-05T07:11:38.801Z,10.64
2017-11-05T07:12:38.799Z,10.70
2017-11-05T07:13:38.800Z,10.64
2017-11-05T07:14:38.800Z,10.67
2017-11-05T07:15:38.804Z,10.62
2017-11-05T07:16:38.804Z,10.67
2017-11-05T07:17:38.805Z,10.62
2017-11-05T07:18:38.804Z,10.68
2017-11-05T07:19:38.809Z,10.67
2017-11-05T07:20:38.809Z,10.70
2017-11-05T07:21:38.823Z,10.71
2017-11-05T07:22:38.811Z,10.64
2017-11-05T07:23:38.821Z,10.70
2017-11-05T07:24:38.816Z,10.68
2017-11-05T07:25:38.821Z,10.72
2017-11-05T07:26:38.819Z,10.75
2017-11-05T07:27:38.822Z,10.78
2017-11-05T07:28:38.825Z,10.75
2017-11-05T07:29:38.830Z,10.78
2017-11-05T07:30:38.830Z,10.77
2017-11-05T07:31:38.830Z,10.77
2017-11-05T07:32:38.829Z,10.79
2017-11-05T07:33:38.833Z,10.79
2017-11-05T07:34:38.840Z,10.74
2017-11-05T07:35:38.841Z,10.79
2017-11-05T07:36:38.836Z,10.78
2017-11-05T07:37:38.838Z,10.77
2017-11-05T07:38:38.845Z,10.72
2017-11-05T07:41:10.964Z,10.82
2017-11-05T07:42:10.918Z,10.78
2017-11-05T07:43:10.924Z,10.83
2017-11-05T07:44:10.927Z,10.86
2017-11-05T07:45:10.932Z,10.85
2017-11-05T07:46:10.924Z,10.78
2017-11-05T07:47:10.927Z,10.75
2017-11-05T07:48:10.934Z,10.75
2017-11-05T07:49:10.935Z,10.71
2017-11-05T07:50:10.934Z,10.72
2017-11-05T07:51:10.949Z,10.74
2017-11-05T07:52:10.938Z,10.78
2017-11-05T07:53:10.941Z,10.75
2017-11-05T07:54:10.944Z,10.82
2017-11-05T07:55:10.945Z,10.83
2017-11-05T07:56:10.942Z,10.71
2017-11-05T07:57:10.949Z,10.78
2017-11-05T07:58:10.985Z,10.85
2017-11-05T07:59:10.948Z,10.82
2017-11-05T08:00:10.961Z,10.85
2017-11-05T08:01:10.951Z,10.83
2017-11-05T08:02:10.984Z,10.77
2017-11-05T08:03:10.958Z,10.86
2017-11-05T08:04:10.960Z,10.85
2017-11-05T08:05:10.961Z,10.85
2017-11-05T08:06:11.012Z,10.86
2017-11-05T08:07:10.960Z,10.82
2017-11-05T08:08:10.968Z,10.74
2017-11-05T08:09:10.968Z,10.87
2017-11-05T08:10:10.986Z,10.82
2017-11-05T08:11:10.973Z,10.86
2017-11-05T08:12:10.995Z,10.86
2017-11-05T08:13:10.992Z,10.83
2017-11-05T08:14:10.971Z,10.82
2017-11-05T08:15:11.016Z,10.85
2017-11-05T08:16:11.068Z,10.83
2017-11-05T08:17:10.980Z,10.82
2017-11-05T08:18:10.990Z,10.86
2017-11-05T08:19:11.004Z,10.77
2017-11-05T08:20:11.010Z,10.83
2017-11-05T08:21:10.989Z,10.82
2017-11-05T08:22:11.008Z,10.83
2017-11-05T08:23:10.999Z,10.83
2017-11-05T08:24:10.993Z,10.77
2017-11-05T08:25:11.033Z,10.77
2017-11-05T08:26:10.996Z,10.78
2017-11-05T08:27:11.014Z,10.77
2017-11-05T08:28:10.999Z,10.75
2017-11-05T08:29:11.015Z,10.82
2017-11-05T08:30:11.002Z,10.83
2017-11-05T08:31:11.025Z,10.79
2017-11-05T08:32:11.013Z,10.75
2017-11-05T08:33:11.010Z,10.72
2017-11-05T08:34:11.015Z,10.79
2017-11-05T08:35:11.017Z,10.75
2017-11-05T08:36:11.012Z,10.72
2017-11-05T08:37:11.017Z,10.75
2017-11-05T08:38:11.018Z,10.75
2017-11-05T08:39:11.028Z,10.67
2017-11-05T08:40:11.027Z,10.71
2017-11-05T08:41:11.118Z,10.79
2017-11-05T08:42:11.050Z,10.74
2017-11-05T08:43:11.038Z,10.68
2017-11-05T08:44:11.036Z,10.77
2017-11-05T08:45:11.043Z,10.78
2017-11-05T08:46:11.034Z,10.77
2017-11-05T08:47:11.037Z,10.70
2017-11-05T08:48:11.069Z,10.71
2017-11-05T08:49:11.038Z,10.77
2017-11-05T08:50:11.038Z,10.74
2017-11-05T08:51:11.041Z,10.62
2017-11-05T08:52:11.083Z,10.71
2017-11-05T08:53:11.076Z,10.64
2017-11-05T08:54:11.132Z,10.70
2017-11-05T08:55:11.079Z,10.75
2017-11-05T08:56:11.078Z,10.68
2017-11-05T08:57:11.070Z,10.75
2017-11-05T08:58:11.063Z,10.67
2017-11-05T08:59:11.066Z,10.64
2017-11-05T09:00:11.091Z,10.71
2017-11-05T09:01:11.061Z,10.70
2017-11-05T09:02:11.054Z,10.62
2017-11-05T09:03:11.066Z,10.68
2017-11-05T09:04:11.115Z,10.71
2017-11-05T09:05:11.063Z,10.67
2017-11-05T09:06:11.143Z,10.70
2017-11-05T09:07:11.083Z,10.68
2017-11-05T09:08:11.175Z,10.68
2017-11-05T09:09:11.069Z,10.65
2017-11-05T09:10:11.079Z,10.65
2017-11-05T09:11:11.080Z,10.67
2017-11-05T09:12:11.077Z,10.67
2017-11-05T09:13:11.149Z,10.62
2017-11-05T09:14:11.098Z,10.68
2017-11-05T09:15:11.092Z,10.70
2017-11-05T09:16:11.081Z,10.60
2017-11-05T09:17:11.083Z,10.64
2017-11-05T09:18:11.091Z,10.65
2017-11-05T09:19:11.090Z,10.62
2017-11-05T09:20:11.086Z,10.62
2017-11-05T09:21:11.160Z,10.62
2017-11-05T09:22:11.094Z,10.64
2017-11-05T09:23:11.130Z,10.56
2017-11-05T09:24:11.103Z,10.56
2017-11-05T09:25:11.107Z,10.68
2017-11-05T09:26:11.176Z,10.59
2017-11-05T09:27:11.101Z,10.57
2017-11-05T09:28:11.109Z,10.62
2017-11-05T09:29:11.463Z,10.54
2017-11-05T09:30:11.103Z,10.56
2017-11-05T09:31:11.105Z,10.57
2017-11-05T09:32:11.111Z,10.54
2017-11-05T09:33:11.220Z,10.59
2017-11-05T09:34:11.120Z,10.56
2017-11-05T09:35:11.110Z,10.53
2017-11-05T09:36:11.111Z,10.56
2017-11-05T09:37:11.118Z,10.56
2017-11-05T09:38:11.114Z,10.60
2017-11-05T09:39:11.114Z,10.53
2017-11-05T09:40:11.163Z,10.57
2017-11-05T09:41:11.140Z,10.53
2017-11-05T09:42:11.150Z,10.59
2017-11-05T09:43:11.159Z,10.57
2017-11-05T09:44:11.131Z,10.59
2017-11-05T09:45:11.122Z,10.52
2017-11-05T09:46:11.140Z,10.54
2017-11-05T09:47:11.129Z,10.54
2017-11-05T09:48:11.132Z,10.43
2017-11-05T09:49:11.151Z,10.45
2017-11-05T09:50:11.131Z,10.46
2017-11-05T09:51:11.139Z,10.46
2017-11-05T09:52:11.138Z,10.49
2017-11-05T09:53:11.142Z,10.59
2017-11-05T09:54:11.201Z,10.52
2017-11-05T09:55:11.140Z,10.45
2017-11-05T09:56:11.147Z,10.49
2017-11-05T09:57:11.145Z,10.56
2017-11-05T09:58:11.146Z,10.46
2017-11-05T09:59:11.142Z,10.45
2017-11-05T10:00:11.145Z,10.48
2017-11-05T10:01:11.164Z,10.49
2017-11-05T10:02:11.151Z,10.49
2017-11-05T10:03:11.157Z,10.43
2017-11-05T10:04:11.159Z,10.40
2017-11-05T10:05:11.157Z,10.34
2017-11-05T10:06:11.157Z,10.31
2017-11-05T10:07:11.156Z,10.30
2017-11-05T10:08:11.157Z,10.28
2017-11-05T10:09:11.161Z,10.28
2017-11-05T10:10:11.170Z,10.30
2017-11-05T10:11:11.162Z,10.28
2017-11-05T10:12:11.166Z,10.31
2017-11-05T10:13:11.163Z,10.31
2017-11-05T10:14:11.165Z,10.23
2017-11-05T10:15:11.179Z,10.27
2017-11-05T10:16:11.174Z,10.26
2017-11-05T10:17:11.173Z,10.28
2017-11-05T10:18:11.175Z,10.28
2017-11-05T10:19:11.179Z,10.30
2017-11-05T10:20:11.185Z,10.30
2017-11-05T10:21:11.182Z,10.33
2017-11-05T10:22:11.188Z,10.40
2017-11-05T10:23:11.184Z,10.33
2017-11-05T10:24:11.180Z,10.27
2017-11-05T10:25:11.185Z,10.26
2017-11-05T10:26:11.182Z,10.33
2017-11-05T10:27:11.186Z,10.33
2017-11-05T10:28:11.191Z,10.28
2017-11-05T10:29:11.193Z,10.30
2017-11-05T10:30:11.194Z,10.34
2017-11-05T10:31:11.196Z,10.30
2017-11-05T10:32:11.193Z,10.35
2017-11-05T10:33:11.198Z,10.28
2017-11-05T10:34:11.201Z,10.34
2017-11-05T10:35:11.204Z,10.38
2017-11-05T10:36:11.198Z,10.43
2017-11-05T10:37:11.201Z,10.49
2017-11-05T10:38:11.202Z,10.53
2017-11-05T10:39:11.208Z,10.48
2017-11-05T10:40:11.203Z,10.45
2017-11-05T10:41:11.219Z,10.43
2017-11-05T10:42:11.216Z,10.41
2017-11-05T10:43:11.209Z,10.40
2017-11-05T10:44:11.212Z,10.48
2017-11-05T10:45:11.213Z,10.52
2017-11-05T10:46:11.244Z,10.59
2017-11-05T10:47:11.213Z,10.35
2017-11-05T10:48:11.216Z,10.43
2017-11-05T10:49:11.215Z,10.43
2017-11-05T10:50:11.222Z,10.56
2017-11-05T10:51:11.222Z,10.49
2017-11-05T10:52:11.222Z,10.46
2017-11-05T10:53:11.222Z,10.46
2017-11-05T10:54:11.230Z,10.37
2017-11-05T10:55:11.225Z,10.43
2017-11-05T10:56:11.227Z,10.49
2017-11-05T10:57:11.236Z,10.43
2017-11-05T10:58:11.233Z,10.45
2017-11-05T10:59:11.237Z,10.46
2017-11-05T11:00:11.234Z,10.43
2017-11-05T11:01:11.238Z,10.46
2017-11-05T11:02:11.248Z,10.49
2017-11-05T11:03:11.247Z,10.40
2017-11-05T11:04:11.241Z,10.48
2017-11-05T11:05:11.242Z,10.41
2017-11-05T11:06:11.367Z,10.43
2017-11-05T11:07:11.242Z,10.41
2017-11-05T11:08:11.247Z,10.43
2017-11-05T11:09:11.253Z,10.34
2017-11-05T11:10:11.297Z,10.34
2017-11-05T11:11:11.281Z,10.35
2017-11-05T11:12:11.251Z,10.40
2017-11-05T11:13:11.256Z,10.35
2017-11-05T11:14:11.255Z,10.45
2017-11-05T11:15:11.258Z,10.40
2017-11-05T11:16:11.260Z,10.37
2017-11-05T11:17:11.264Z,10.30
2017-11-05T11:18:11.262Z,10.27
2017-11-05T11:20:43.379Z,10.37
2017-11-05T11:21:43.340Z,10.38
2017-11-05T11:22:43.340Z,10.43
2017-11-05T11:23:43.347Z,10.37
2017-11-05T11:24:43.344Z,10.34
2017-11-05T11:25:43.341Z,10.27
2017-11-05T11:26:43.347Z,10.30
2017-11-05T11:27:43.344Z,10.31
2017-11-05T11:28:43.349Z,10.33
2017-11-05T11:29:43.349Z,10.33
2017-11-05T11:30:43.348Z,10.35
2017-11-05T11:31:43.357Z,10.31
2017-11-05T11:32:43.352Z,10.33
2017-11-05T11:33:43.354Z,10.28
2017-11-05T11:34:43.352Z,10.31
2017-11-05T11:35:43.363Z,10.27
2017-11-05T11:36:43.368Z,10.30
2017-11-05T11:37:43.356Z,10.26
2017-11-05T11:38:43.373Z,10.26
2017-11-05T11:39:43.363Z,10.33
2017-11-05T11:40:43.438Z,10.27
2017-11-05T11:41:43.363Z,10.30
2017-11-05T11:42:43.365Z,10.23
2017-11-05T11:43:43.367Z,10.33
2017-11-05T11:44:43.369Z,10.31
2017-11-05T11:45:43.370Z,10.27
2017-11-05T11:46:43.372Z,10.28
2017-11-05T11:47:43.372Z,10.27
2017-11-05T11:48:43.384Z,10.16
2017-11-05T11:49:43.372Z,10.40
2017-11-05T11:50:43.375Z,10.28
2017-11-05T11:51:43.397Z,10.31
2017-11-05T11:52:43.381Z,10.27
2017-11-05T11:53:43.383Z,10.35
2017-11-05T11:54:43.378Z,10.27
2017-11-05T11:55:43.382Z,10.31
2017-11-05T11:56:43.384Z,10.31
2017-11-05T11:57:43.387Z,10.33
2017-11-05T11:58:43.389Z,10.30
2017-11-05T11:59:43.387Z,10.27
2017-11-05T12:00:43.400Z,10.33
2017-11-05T12:01:43.391Z,10.31
2017-11-05T12:02:43.395Z,10.38
2017-11-05T12:03:43.406Z,10.30
2017-11-05T12:04:43.400Z,10.37
2017-11-05T12:05:43.399Z,10.33
2017-11-05T12:06:43.401Z,10.28
2017-11-05T12:07:43.422Z,10.31
2017-11-05T12:08:43.400Z,10.35
2017-11-05T12:09:43.402Z,10.37
2017-11-05T12:10:43.403Z,10.30
2017-11-05T12:11:43.409Z,10.27
2017-11-05T12:12:43.408Z,10.38
2017-11-05T12:13:43.408Z,10.31
2017-11-05T12:14:43.412Z,10.35
2017-11-05T12:15:43.410Z,10.33
2017-11-05T12:16:43.408Z,10.35
2017-11-05T12:17:43.424Z,10.28
2017-11-05T12:18:43.413Z,10.28
2017-11-05T12:19:43.416Z,10.35
2017-11-05T12:20:43.425Z,10.31
2017-11-05T12:21:43.418Z,10.27
2017-11-05T12:22:43.419Z,10.37
2017-11-05T12:23:43.419Z,10.34
2017-11-05T12:24:43.426Z,10.45
2017-11-05T12:25:43.429Z,10.41
2017-11-05T12:26:43.436Z,10.46
2017-11-05T12:27:43.428Z,10.46
2017-11-05T12:28:43.505Z,10.49
2017-11-05T12:29:43.430Z,10.46
2017-11-05T12:30:43.475Z,10.56
2017-11-05T12:31:43.433Z,10.45
2017-11-05T12:32:43.609Z,10.49
2017-11-05T12:33:43.434Z,10.57
2017-11-05T12:34:43.439Z,10.52
2017-11-05T12:35:43.441Z,10.53
2017-11-05T12:36:43.438Z,10.45
2017-11-05T12:37:43.442Z,10.52
2017-11-05T12:38:43.445Z,10.45
2017-11-05T12:39:43.445Z,10.45
2017-11-05T12:40:43.455Z,10.45
2017-11-05T12:41:43.448Z,10.40
2017-11-05T12:42:43.450Z,10.43
2017-11-05T12:43:43.452Z,10.38
2017-11-05T12:44:43.459Z,10.52
2017-11-05T12:45:43.457Z,10.41
2017-11-05T12:46:43.457Z,10.43
2017-11-05T12:47:43.457Z,10.54
2017-11-05T12:48:43.465Z,10.60
2017-11-05T12:49:43.458Z,10.57
2017-11-05T12:50:43.460Z,10.53
2017-11-05T12:51:43.470Z,10.57
2017-11-05T12:52:43.461Z,10.56
2017-11-05T12:53:43.494Z,10.60
2017-11-05T12:54:43.465Z,10.59
2017-11-05T12:55:43.469Z,10.60
2017-11-05T12:56:43.467Z,10.62
2017-11-05T12:57:43.472Z,10.60
2017-11-05T12:58:43.472Z,10.53
2017-11-05T12:59:43.482Z,10.59